Time;durP1;ratioP1;P1;durP2;ratioP2;P2;SDS_P1;SDS_P2;PMS_P1;PMS_P2;Temp;Humidity;BMP_temperature;BMP_pressure;BME280_temperature;BME280_humidity;BME280_pressure;Samples;Min_cycle;Max_cycle;Signal;HPM_P1;HPM_P2
2022/10/01 04:00:46;;;;;;;18.67;17.00;;;;;;;;;;5811494;22;20980;-83
2022/10/01 04:03:12;;;;;;;18.45;16.75;;;;;;;;;;5075361;28;20390;-83
2022/10/01 04:05:38;;;;;;;16.77;15.10;;;;;;;;;;5097072;28;20392;-83
2022/10/01 04:08:05;;;;;;;16.17;14.70;;;;;;;;;;5080746;28;20392;-83
2022/10/01 04:10:31;;;;;;;16.40;15.03;;;;;;;;;;5072840;28;20457;-83
2022/10/01 04:12:56;;;;;;;15.07;13.80;;;;;;;;;;5074306;28;20392;-83
2022/10/01 04:15:23;;;;;;;15.48;14.18;;;;;;;;;;5057699;28;20755;-83
2022/10/01 04:17:50;;;;;;;16.17;14.77;;;;;;;;;;5071926;28;20379;-83
2022/10/01 04:20:16;;;;;;;17.92;16.33;;;;;;;;;;5051866;28;20391;-83
2022/10/01 04:22:43;;;;;;;16.98;15.52;;;;;;;;;;5073541;28;20388;-83
2022/10/01 04:25:10;;;;;;;16.75;15.27;;;;;;;;;;5074311;28;20396;-83
2022/10/01 04:27:40;;;;;;;17.65;16.25;;;;;;;;;;5074255;28;20409;-83
2022/10/01 04:30:09;;;;;;;22.33;20.33;;;;;;;;;;5073046;28;20399;-83
2022/10/01 04:32:37;;;;;;;20.10;18.35;;;;;;;;;;5073958;28;20380;-83
2022/10/01 04:35:06;;;;;;;22.23;19.92;;;;;;;;;;5073768;28;20375;-83
2022/10/01 04:37:31;;;;;;;21.98;19.88;;;;;;;;;;5073866;28;20379;-83
2022/10/01 04:39:57;;;;;;;21.42;19.27;;;;;;;;;;5073702;28;20381;-83
2022/10/01 04:42:23;;;;;;;17.87;16.37;;;;;;;;;;5078652;28;20436;-83
2022/10/01 04:44:49;;;;;;;16.80;15.48;;;;;;;;;;5060138;28;20915;-83
2022/10/01 04:47:16;;;;;;;17.00;15.52;;;;;;;;;;5082677;28;20384;-83
2022/10/01 04:49:42;;;;;;;17.48;16.08;;;;;;;;;;5073735;28;20372;-83
2022/10/01 04:52:08;;;;;;;15.90;14.60;;;;;;;;;;5073333;28;20575;-85
2022/10/01 04:54:34;;;;;;;17.88;16.27;;;;;;;;;;5073560;28;20471;-85
2022/10/01 04:56:59;;;;;;;19.00;17.38;;;;;;;;;;5073261;28;20379;-87
2022/10/01 04:59:25;;;;;;;22.23;20.05;;;;;;;;;;5073703;28;20391;-87
2022/10/01 05:01:52;;;;;;;18.88;17.08;;;;;;;;;;5073190;28;20431;-87
2022/10/01 05:04:17;;;;;;;16.98;15.68;;;;;;;;;;5073436;28;20733;-88
2022/10/01 05:06:44;;;;;;;15.55;14.35;;;;;;;;;;5073336;28;20387;-85
2022/10/01 05:09:09;;;;;;;16.05;14.75;;;;;;;;;;5072065;28;20391;-85
2022/10/01 05:11:37;;;;;;;16.80;15.33;;;;;;;;;;5074522;28;20403;-85
2022/10/01 05:14:03;;;;;;;17.50;15.90;;;;;;;;;;5082503;28;20387;-85
2022/10/01 05:16:29;;;;;;;18.33;16.63;;;;;;;;;;5075854;28;20459;-86
2022/10/01 05:18:55;;;;;;;16.27;15.00;;;;;;;;;;5067612;28;20465;-85
2022/10/01 05:21:22;;;;;;;16.58;15.25;;;;;;;;;;5068099;28;20397;-86
2022/10/01 05:23:47;;;;;;;16.50;15.18;;;;;;;;;;5065893;28;20380;-85
2022/10/01 05:26:13;;;;;;;15.70;14.40;;;;;;;;;;5072625;28;20450;-84
2022/10/01 05:28:43;;;;;;;16.25;14.95;;;;;;;;;;5072921;28;20383;-85
2022/10/01 05:31:09;;;;;;;15.45;14.13;;;;;;;;;;5065084;28;20404;-83
2022/10/01 05:33:35;;;;;;;18.35;16.75;;;;;;;;;;5078608;28;20379;-84
2022/10/01 05:36:02;;;;;;;18.63;17.02;;;;;;;;;;5054294;28;20390;-84
2022/10/01 05:38:28;;;;;;;20.83;18.83;;;;;;;;;;5072664;28;20510;-85
2022/10/01 05:40:54;;;;;;;21.40;19.40;;;;;;;;;;5072503;28;20915;-85
2022/10/01 05:43:20;;;;;;;19.92;18.13;;;;;;;;;;5072559;28;20391;-84
2022/10/01 05:45:46;;;;;;;20.08;18.20;;;;;;;;;;5072510;28;20375;-84
2022/10/01 05:48:12;;;;;;;17.00;15.45;;;;;;;;;;5083584;28;20936;-85
2022/10/01 05:50:39;;;;;;;15.80;14.52;;;;;;;;;;5072449;28;20415;-85
2022/10/01 05:53:06;;;;;;;14.93;13.73;;;;;;;;;;5072394;28;20433;-85
2022/10/01 05:55:33;;;;;;;13.88;12.77;;;;;;;;;;5072320;28;20403;-85
2022/10/01 05:58:09;;;;;;;12.93;11.73;;;;;;;;;;5072519;28;20402;-84
2022/10/01 06:00:36;;;;;;;12.07;11.25;;;;;;;;;;5072157;28;20390;-85
2022/10/01 06:03:02;;;;;;;12.32;11.38;;;;;;;;;;5072409;28;20415;-84
2022/10/01 06:05:29;;;;;;;12.85;11.85;;;;;;;;;;5072452;28;20487;-84
2022/10/01 06:07:56;;;;;;;12.60;11.50;;;;;;;;;;5072289;28;20391;-84
2022/10/01 06:10:22;;;;;;;12.18;11.27;;;;;;;;;;5072171;28;20395;-85
2022/10/01 06:12:48;;;;;;;13.70;12.40;;;;;;;;;;5072110;28;20386;-85
2022/10/01 06:15:15;;;;;;;12.32;11.43;;;;;;;;;;5072273;28;20372;-86
2022/10/01 06:17:44;;;;;;;14.20;13.00;;;;;;;;;;5072365;28;20388;-84
2022/10/01 06:20:14;;;;;;;12.15;11.25;;;;;;;;;;5072635;28;20384;-82
2022/10/01 06:22:41;;;;;;;15.30;13.80;;;;;;;;;;5071903;28;20410;-82
2022/10/01 06:25:07;;;;;;;13.82;12.77;;;;;;;;;;5072064;28;20391;-83
2022/10/01 06:27:33;;;;;;;12.20;10.90;;;;;;;;;;5071633;28;20479;-82
2022/10/01 06:29:59;;;;;;;10.52;9.68;;;;;;;;;;5069439;28;20415;-83
2022/10/01 06:32:25;;;;;;;10.75;9.95;;;;;;;;;;5066079;28;20384;-82
2022/10/01 06:34:51;;;;;;;11.43;10.45;;;;;;;;;;5071928;28;20893;-82
2022/10/01 06:37:17;;;;;;;10.87;9.97;;;;;;;;;;5071982;28;20387;-82
2022/10/01 06:39:43;;;;;;;21.90;16.60;;;;;;;;;;5071748;28;20434;-84
2022/10/01 06:42:09;;;;;;;16.38;13.90;;;;;;;;;;5071945;28;20759;-81
2022/10/01 06:44:35;;;;;;;17.37;15.00;;;;;;;;;;5073020;28;20387;-81
2022/10/01 06:47:01;;;;;;;12.80;11.60;;;;;;;;;;5076062;28;20383;-82
2022/10/01 06:49:27;;;;;;;9.68;8.90;;;;;;;;;;5074737;28;20419;-81
2022/10/01 06:54:37;;;;;;;8.85;8.02;;;;;;;;;;5073853;28;20924;-83
2022/10/01 06:57:04;;;;;;;7.72;7.13;;;;;;;;;;5061516;28;20427;-81
2022/10/01 06:59:30;;;;;;;8.05;7.50;;;;;;;;;;5074922;28;20415;-83
2022/10/01 07:01:56;;;;;;;7.95;7.35;;;;;;;;;;5068817;28;20466;-81
2022/10/01 07:04:22;;;;;;;7.45;6.88;;;;;;;;;;5073722;28;20400;-81
2022/10/01 07:06:48;;;;;;;6.68;6.18;;;;;;;;;;5075549;28;20481;-81
2022/10/01 07:09:14;;;;;;;6.82;6.28;;;;;;;;;;5075368;28;20410;-81
2022/10/01 07:11:41;;;;;;;6.75;6.25;;;;;;;;;;5075307;28;20411;-81
2022/10/01 07:14:08;;;;;;;6.60;6.00;;;;;;;;;;5074468;28;20466;-81
2022/10/01 07:16:34;;;;;;;6.35;5.85;;;;;;;;;;5073489;28;20407;-81
2022/10/01 07:19:00;;;;;;;6.72;6.18;;;;;;;;;;5073047;28;20903;-80
2022/10/01 07:21:26;;;;;;;8.77;6.72;;;;;;;;;;5074383;28;20396;-82
2022/10/01 07:23:53;;;;;;;7.10;6.50;;;;;;;;;;5075103;28;20417;-81
2022/10/01 07:26:19;;;;;;;7.28;6.60;;;;;;;;;;5074536;28;20458;-81
2022/10/01 07:28:45;;;;;;;7.35;6.75;;;;;;;;;;5075141;28;20387;-81
2022/10/01 07:31:11;;;;;;;7.03;6.53;;;;;;;;;;5069684;28;20415;-81
2022/10/01 07:33:38;;;;;;;6.93;6.43;;;;;;;;;;5055731;28;20478;-81
2022/10/01 07:36:05;;;;;;;7.45;6.75;;;;;;;;;;5070648;28;20432;-81
2022/10/01 07:38:34;;;;;;;6.85;6.32;;;;;;;;;;5074656;28;20912;-81
2022/10/01 07:41:03;;;;;;;6.97;6.47;;;;;;;;;;5076932;28;20391;-81
2022/10/01 07:43:30;;;;;;;6.90;6.40;;;;;;;;;;5074867;28;20372;-81
2022/10/01 07:45:57;;;;;;;6.72;6.22;;;;;;;;;;5075028;28;20383;-82
2022/10/01 07:48:26;;;;;;;6.53;6.03;;;;;;;;;;5074635;28;20387;-81
2022/10/01 07:50:52;;;;;;;7.18;6.45;;;;;;;;;;5074989;28;20375;-81
2022/10/01 07:53:18;;;;;;;6.72;6.15;;;;;;;;;;5074466;28;21073;-81
2022/10/01 07:55:44;;;;;;;8.10;6.38;;;;;;;;;;5074039;28;20884;-82
2022/10/01 07:58:11;;;;;;;6.43;5.82;;;;;;;;;;5074223;28;20382;-82
2022/10/01 08:00:37;;;;;;;5.15;4.75;;;;;;;;;;5074272;28;20411;-81
2022/10/01 08:03:04;;;;;;;5.65;5.20;;;;;;;;;;5074489;28;20372;-81
2022/10/01 08:05:34;;;;;;;5.60;5.20;;;;;;;;;;5056377;28;20860;-81
2022/10/01 08:08:01;;;;;;;5.50;5.10;;;;;;;;;;5074394;28;20383;-81
2022/10/01 08:10:28;;;;;;;4.90;4.40;;;;;;;;;;5074190;28;20380;-82
2022/10/01 08:13:07;;;;;;;5.00;4.50;;;;;;;;;;5074326;28;20470;-81
2022/10/01 08:15:33;;;;;;;4.88;4.40;;;;;;;;;;5074196;28;20382;-81
2022/10/01 08:18:02;;;;;;;4.45;4.05;;;;;;;;;;5074099;28;20391;-81
2022/10/01 08:20:28;;;;;;;4.10;3.80;;;;;;;;;;5073835;28;20403;-81
2022/10/01 08:23:00;;;;;;;3.90;3.60;;;;;;;;;;5074162;28;20380;-81
2022/10/01 08:25:26;;;;;;;4.57;3.28;;;;;;;;;;5074091;28;20375;-81
2022/10/01 08:27:52;;;;;;;4.07;3.42;;;;;;;;;;5074218;28;20380;-81
2022/10/01 08:30:18;;;;;;;3.50;3.20;;;;;;;;;;5073933;28;20418;-81
2022/10/01 08:32:44;;;;;;;3.33;3.03;;;;;;;;;;5073902;28;20383;-81
2022/10/01 08:35:11;;;;;;;3.53;3.22;;;;;;;;;;5073921;28;20471;-81
2022/10/01 08:37:37;;;;;;;3.60;3.30;;;;;;;;;;5073811;28;20714;-81
2022/10/01 08:40:03;;;;;;;3.25;2.95;;;;;;;;;;5073698;28;20387;-81
2022/10/01 08:42:30;;;;;;;3.50;3.20;;;;;;;;;;5073631;28;20770;-81
2022/10/01 08:45:00;;;;;;;3.50;3.17;;;;;;;;;;5074024;28;20465;-81
2022/10/01 08:47:30;;;;;;;3.25;2.95;;;;;;;;;;5073948;28;20438;-81
2022/10/01 08:50:02;;;;;;;3.10;2.90;;;;;;;;;;5073653;28;20464;-81
2022/10/01 08:52:30;;;;;;;2.92;2.72;;;;;;;;;;5073571;28;20391;-81
2022/10/01 08:54:58;;;;;;;4.65;3.10;;;;;;;;;;5073531;28;20738;-80
2022/10/01 08:57:29;;;;;;;3.10;2.90;;;;;;;;;;5073485;28;20391;-81
2022/10/01 09:00:00;;;;;;;3.20;2.50;;;;;;;;;;5073394;28;20376;-80
2022/10/01 09:02:28;;;;;;;3.75;3.03;;;;;;;;;;5073262;28;20392;-80
2022/10/01 09:05:02;;;;;;;3.45;3.00;;;;;;;;;;5072744;28;20430;-80
2022/10/01 09:07:30;;;;;;;3.10;2.80;;;;;;;;;;5073249;28;20471;-80
2022/10/01 09:10:04;;;;;;;3.17;2.88;;;;;;;;;;5073209;28;20383;-80
2022/10/01 09:12:42;;;;;;;3.33;2.73;;;;;;;;;;5073155;28;20382;-81
2022/10/01 09:15:26;;;;;;;3.10;2.65;;;;;;;;;;5073067;28;20783;-80
2022/10/01 09:17:55;;;;;;;2.97;2.53;;;;;;;;;;5073087;28;20785;-80
2022/10/01 09:20:21;;;;;;;4.55;2.80;;;;;;;;;;5072839;28;20503;-81
2022/10/01 09:23:00;;;;;;;2.63;2.42;;;;;;;;;;5073045;28;20920;-81
2022/10/01 09:25:26;;;;;;;2.50;2.30;;;;;;;;;;5073148;28;20375;-80
2022/10/01 09:28:06;;;;;;;3.55;2.80;;;;;;;;;;5072823;28;20376;-80
2022/10/01 09:30:33;;;;;;;2.70;2.50;;;;;;;;;;5072789;28;20452;-80
2022/10/01 09:33:03;;;;;;;2.90;2.40;;;;;;;;;;5072806;28;20844;-80
2022/10/01 09:35:33;;;;;;;2.80;2.60;;;;;;;;;;5072689;28;20388;-80
2022/10/01 09:38:11;;;;;;;2.80;2.60;;;;;;;;;;5072187;28;20384;-80
2022/10/01 09:40:52;;;;;;;2.80;2.60;;;;;;;;;;5072469;28;20415;-80
2022/10/01 09:43:20;;;;;;;2.63;2.42;;;;;;;;;;5072904;28;20371;-80
2022/10/01 09:45:46;;;;;;;2.80;2.60;;;;;;;;;;5072680;28;20372;-80
2022/10/01 09:48:33;;;;;;;2.50;2.30;;;;;;;;;;5080483;28;20382;-81
2022/10/01 09:51:02;;;;;;;2.50;2.30;;;;;;;;;;5047337;28;20388;-81
2022/10/01 09:53:33;;;;;;;3.10;2.70;;;;;;;;;;5071194;28;20710;-80
2022/10/01 09:56:02;;;;;;;2.30;2.10;;;;;;;;;;5071494;28;20521;-80
2022/10/01 09:58:29;;;;;;;2.22;2.03;;;;;;;;;;5058465;28;20429;-80
2022/10/01 10:00:55;;;;;;;3.05;2.10;;;;;;;;;;5071501;28;20435;-81
2022/10/01 10:03:28;;;;;;;3.92;3.25;;;;;;;;;;5070911;28;20383;-80
2022/10/01 10:05:54;;;;;;;4.35;3.97;;;;;;;;;;5068596;28;20386;-80
2022/10/01 10:08:28;;;;;;;13.55;10.02;;;;;;;;;;5055149;28;20395;-81
2022/10/01 10:11:00;;;;;;;16.38;12.05;;;;;;;;;;5062724;28;20417;-80
2022/10/01 10:13:34;;;;;;;7.55;6.40;;;;;;;;;;5072390;28;20977;-81
2022/10/01 10:16:00;;;;;;;5.90;4.93;;;;;;;;;;5065872;28;20880;-81
2022/10/01 10:18:37;;;;;;;4.40;4.00;;;;;;;;;;5070764;28;20868;-81
2022/10/01 10:21:06;;;;;;;2.25;2.05;;;;;;;;;;5067624;28;20473;-81
2022/10/01 10:23:33;;;;;;;1.50;1.33;;;;;;;;;;5071872;28;20380;-81
2022/10/01 10:26:02;;;;;;;2.33;1.23;;;;;;;;;;5074461;28;20386;-81
2022/10/01 10:28:48;;;;;;;6.32;5.22;;;;;;;;;;5064493;28;20395;-81
2022/10/01 10:31:15;;;;;;;5.10;4.60;;;;;;;;;;5065366;28;20487;-81
2022/10/01 10:34:11;;;;;;;6.00;4.38;;;;;;;;;;5069739;28;20383;-82
2022/10/01 10:36:37;;;;;;;7.25;6.55;;;;;;;;;;5068309;28;20426;-82
2022/10/01 10:39:05;;;;;;;4.30;3.90;;;;;;;;;;5066658;28;20462;-81
2022/10/01 10:41:32;;;;;;;2.95;2.75;;;;;;;;;;5062197;28;20908;-83
2022/10/01 10:44:03;;;;;;;5.70;5.20;;;;;;;;;;5070819;28;20379;-82
2022/10/01 10:46:33;;;;;;;1.30;1.10;;;;;;;;;;5071044;28;20380;-83
2022/10/01 10:49:03;;;;;;;2.30;1.13;;;;;;;;;;5080198;28;20382;-83
2022/10/01 10:51:29;;;;;;;2.07;1.10;;;;;;;;;;5077192;28;20391;-85
2022/10/01 10:53:59;;;;;;;1.67;1.25;;;;;;;;;;5071485;28;20470;-82
2022/10/01 10:56:25;;;;;;;1.40;1.30;;;;;;;;;;5071484;28;20372;-85
2022/10/01 10:58:52;;;;;;;1.25;1.00;;;;;;;;;;5067407;28;20936;-84
2022/10/01 11:01:24;;;;;;;1.42;1.20;;;;;;;;;;5067899;28;20414;-84
2022/10/01 11:03:54;;;;;;;2.20;1.00;;;;;;;;;;5071743;28;20470;-85
2022/10/01 11:06:21;;;;;;;1.95;1.00;;;;;;;;;;5053334;28;20804;-83
2022/10/01 11:08:55;;;;;;;2.00;1.52;;;;;;;;;;5080281;28;20386;-83
2022/10/01 11:11:40;;;;;;;1.13;1.03;;;;;;;;;;5071109;28;20409;-83
2022/10/01 11:14:07;;;;;;;1.98;1.20;;;;;;;;;;5058838;28;20392;-83
2022/10/01 11:16:39;;;;;;;1.30;1.10;;;;;;;;;;5069658;28;20445;-82
2022/10/01 11:19:11;;;;;;;3.03;1.10;;;;;;;;;;5080749;28;20390;-83
2022/10/01 11:21:50;;;;;;;2.65;1.27;;;;;;;;;;5059807;28;20848;-86
2022/10/01 11:24:22;;;;;;;2.20;1.03;;;;;;;;;;5071385;28;20452;-84
2022/10/01 11:26:57;;;;;;;1.30;1.20;;;;;;;;;;5071425;28;20402;-82
2022/10/01 11:29:42;;;;;;;2.90;1.70;;;;;;;;;;5055332;28;20462;-84
2022/10/01 11:32:20;;;;;;;1.50;1.40;;;;;;;;;;5071654;28;20411;-83
2022/10/01 11:35:09;;;;;;;2.17;1.20;;;;;;;;;;5073576;28;20411;-83
2022/10/01 11:37:38;;;;;;;2.30;1.20;;;;;;;;;;5043954;28;20396;-83
2022/10/01 11:40:24;;;;;;;1.98;1.55;;;;;;;;;;5074603;28;20414;-82
2022/10/01 11:42:53;;;;;;;2.45;1.27;;;;;;;;;;5060458;28;20380;-83
2022/10/01 11:45:22;;;;;;;2.17;1.27;;;;;;;;;;5074417;28;20881;-83
2022/10/01 11:48:08;;;;;;;2.27;1.30;;;;;;;;;;5074661;28;20372;-83
2022/10/01 11:50:36;;;;;;;1.65;1.30;;;;;;;;;;5076936;28;20384;-83
2022/10/01 11:53:09;;;;;;;1.80;1.55;;;;;;;;;;5074702;28;20441;-83
2022/10/01 11:58:51;;;;;;;2.83;1.60;;;;;;;;;;5064013;28;20390;-85
2022/10/01 12:01:20;;;;;;;2.03;1.42;;;;;;;;;;5071620;28;20416;-84
2022/10/01 12:03:53;;;;;;;1.80;1.40;;;;;;;;;;5071259;28;20951;-85
2022/10/01 12:06:22;;;;;;;2.75;1.23;;;;;;;;;;5070859;28;20387;-86
2022/10/01 12:08:57;;;;;;;2.00;1.80;;;;;;;;;;5071258;28;20733;-85
2022/10/01 12:11:46;;;;;;;2.30;1.50;;;;;;;;;;5073270;28;20729;-85
2022/10/01 12:14:15;;;;;;;2.10;1.80;;;;;;;;;;5054085;28;20395;-85
2022/10/01 12:17:11;;;;;;;2.00;1.80;;;;;;;;;;5073272;28;20864;-85
2022/10/01 12:19:38;;;;;;;1.98;1.40;;;;;;;;;;5064773;28;20399;-86
2022/10/01 12:22:14;;;;;;;2.25;1.95;;;;;;;;;;5073141;28;20407;-85
2022/10/01 12:24:43;;;;;;;5.60;5.10;;;;;;;;;;5073219;28;20713;-85
2022/10/01 12:27:10;;;;;;;7.53;6.93;;;;;;;;;;5072934;28;20887;-87
2022/10/01 12:30:01;;;;;;;6.20;5.70;;;;;;;;;;5073241;28;20378;-85
2022/10/01 12:32:38;;;;;;;3.43;3.13;;;;;;;;;;5072401;28;20443;-85
2022/10/01 12:35:16;;;;;;;3.25;2.72;;;;;;;;;;5073308;28;20848;-85
2022/10/01 12:37:59;;;;;;;4.60;4.30;;;;;;;;;;5072804;28;20414;-84
2022/10/01 12:40:31;;;;;;;2.13;1.60;;;;;;;;;;5072741;28;20376;-87
2022/10/01 12:43:04;;;;;;;1.92;1.83;;;;;;;;;;5072965;28;20372;-87
2022/10/01 12:45:43;;;;;;;2.57;2.37;;;;;;;;;;5073043;28;20439;-86
2022/10/01 12:48:09;;;;;;;3.13;2.50;;;;;;;;;;5073153;28;20375;-84
2022/10/01 12:50:51;;;;;;;2.50;2.30;;;;;;;;;;5072657;28;20466;-88
2022/10/01 12:53:23;;;;;;;3.50;2.70;;;;;;;;;;5072726;28;20463;-86
2022/10/01 12:56:08;;;;;;;3.97;3.33;;;;;;;;;;5072643;28;20380;-86
2022/10/01 12:58:40;;;;;;;2.95;2.75;;;;;;;;;;5072556;28;20404;-87
2022/10/01 13:01:10;;;;;;;2.33;2.10;;;;;;;;;;5008773;28;1765283;-84
2022/10/01 13:03:53;;;;;;;4.15;3.00;;;;;;;;;;5073628;28;20379;-87
2022/10/01 13:06:19;;;;;;;4.45;3.53;;;;;;;;;;5073218;28;20383;-88
2022/10/01 13:08:48;;;;;;;2.75;2.47;;;;;;;;;;5073274;28;20477;-87
2022/10/01 13:11:33;;;;;;;4.88;3.20;;;;;;;;;;5072483;28;20384;-88
2022/10/01 13:14:02;;;;;;;4.45;2.30;;;;;;;;;;5055164;28;20383;-84
2022/10/01 13:16:32;;;;;;;2.50;1.63;;;;;;;;;;5073032;28;20372;-87
2022/10/01 13:19:07;;;;;;;2.33;1.90;;;;;;;;;;5073176;28;20384;-85
2022/10/01 13:21:33;;;;;;;5.00;4.50;;;;;;;;;;5072818;28;20403;-87
2022/10/01 13:24:01;;;;;;;5.85;5.40;;;;;;;;;;5073065;28;20737;-85
2022/10/01 13:26:31;;;;;;;5.78;5.35;;;;;;;;;;5072778;28;20737;-84
2022/10/01 13:29:06;;;;;;;5.80;5.40;;;;;;;;;;5073091;28;20387;-86
2022/10/01 13:31:36;;;;;;;7.03;6.50;;;;;;;;;;5072734;28;20386;-85
2022/10/01 13:34:02;;;;;;;3.43;2.83;;;;;;;;;;5072652;28;20478;-85
2022/10/01 13:36:32;;;;;;;6.13;5.15;;;;;;;;;;5072266;28;20852;-85
2022/10/01 13:38:58;;;;;;;4.72;3.15;;;;;;;;;;5072620;28;20387;-85
2022/10/01 13:41:29;;;;;;;2.40;1.90;;;;;;;;;;5072803;28;20400;-86
2022/10/01 13:43:57;;;;;;;1.80;1.50;;;;;;;;;;5072743;28;20380;-85
2022/10/01 13:46:27;;;;;;;1.55;1.45;;;;;;;;;;5074602;28;20453;-85
2022/10/01 13:48:54;;;;;;;1.10;1.00;;;;;;;;;;5065525;28;20372;-85
2022/10/01 13:51:20;;;;;;;1.30;1.20;;;;;;;;;;5072497;28;20466;-85
2022/10/01 13:53:53;;;;;;;1.45;1.35;;;;;;;;;;5072091;28;20376;-84
2022/10/01 13:56:27;;;;;;;1.40;1.30;;;;;;;;;;5072406;28;20437;-85
2022/10/01 13:58:53;;;;;;;1.80;1.70;;;;;;;;;;5072462;28;20737;-85
2022/10/01 14:01:19;;;;;;;1.70;1.60;;;;;;;;;;5072121;28;20468;-85
2022/10/01 14:03:52;;;;;;;2.40;2.20;;;;;;;;;;5072367;28;20372;-86
2022/10/01 14:06:31;;;;;;;2.97;2.05;;;;;;;;;;5072312;28;20384;-85
2022/10/01 14:09:00;;;;;;;1.80;1.70;;;;;;;;;;5072329;28;20458;-86
2022/10/01 14:17:04;;;;;;;2.30;2.00;;;;;;;;;;5072535;28;20371;-85
2022/10/01 14:19:30;;;;;;;1.85;1.75;;;;;;;;;;5072352;28;20384;-85
2022/10/01 14:22:02;;;;;;;2.10;1.90;;;;;;;;;;5072021;28;20465;-84
2022/10/01 14:24:37;;;;;;;3.47;3.13;;;;;;;;;;5072275;28;20488;-86
2022/10/01 14:27:22;;;;;;;6.13;5.15;;;;;;;;;;5072084;28;20853;-87
2022/10/01 14:29:54;;;;;;;6.90;6.20;;;;;;;;;;5072046;28;20466;-84
2022/10/01 14:32:38;;;;;;;7.72;6.50;;;;;;;;;;5071886;28;20380;-87
2022/10/01 14:35:04;;;;;;;9.13;5.80;;;;;;;;;;5071985;28;20379;-85
2022/10/01 14:37:30;;;;;;;4.05;3.63;;;;;;;;;;5071915;28;20380;-86
2022/10/01 14:40:00;;;;;;;5.63;4.60;;;;;;;;;;5072022;28;20383;-87
2022/10/01 14:42:26;;;;;;;4.13;3.73;;;;;;;;;;5071659;28;20411;-86
2022/10/01 14:44:52;;;;;;;3.40;3.05;;;;;;;;;;5072087;28;20417;-85
2022/10/01 14:47:19;;;;;;;4.75;3.20;;;;;;;;;;5071931;28;20412;-86
2022/10/01 14:49:45;;;;;;;4.17;3.47;;;;;;;;;;5072001;28;20386;-86
2022/10/01 14:52:22;;;;;;;3.95;3.65;;;;;;;;;;5071834;28;20376;-86
2022/10/01 14:54:48;;;;;;;4.85;4.30;;;;;;;;;;5071743;28;20379;-85
2022/10/01 14:57:19;;;;;;;6.18;5.28;;;;;;;;;;5071932;28;20389;-85
2022/10/01 14:59:46;;;;;;;5.10;4.50;;;;;;;;;;5071743;28;20856;-85
2022/10/01 15:02:19;;;;;;;3.67;3.28;;;;;;;;;;5071750;28;20911;-85
2022/10/01 15:04:46;;;;;;;2.10;1.90;;;;;;;;;;5071711;28;20376;-85
2022/10/01 15:07:14;;;;;;;1.67;1.57;;;;;;;;;;5075437;28;20380;-84
2022/10/01 15:09:40;;;;;;;1.80;1.35;;;;;;;;;;5075489;28;20376;-85
2022/10/01 15:12:07;;;;;;;1.40;1.30;;;;;;;;;;5077087;28;20387;-86
2022/10/01 15:14:34;;;;;;;1.65;1.55;;;;;;;;;;5075303;28;20395;-85
2022/10/01 15:17:04;;;;;;;3.97;2.05;;;;;;;;;;5075285;28;20409;-86
2022/10/01 15:19:31;;;;;;;1.52;1.42;;;;;;;;;;5075348;28;20474;-84
2022/10/01 15:21:59;;;;;;;1.80;1.70;;;;;;;;;;5075211;28;20469;-86
2022/10/01 15:24:41;;;;;;;1.85;1.75;;;;;;;;;;5075240;28;20737;-86
2022/10/01 15:27:12;;;;;;;1.95;1.85;;;;;;;;;;5077745;28;20848;-84
2022/10/01 15:29:39;;;;;;;1.95;1.75;;;;;;;;;;5076002;28;20372;-86
2022/10/01 15:32:05;;;;;;;1.55;1.45;;;;;;;;;;5075026;28;20402;-85
2022/10/01 15:34:31;;;;;;;2.30;1.90;;;;;;;;;;5075164;28;20380;-85
2022/10/01 15:37:01;;;;;;;2.00;1.80;;;;;;;;;;5075405;28;20376;-86
2022/10/01 15:39:40;;;;;;;2.60;2.40;;;;;;;;;;5074971;28;20785;-86
2022/10/01 15:42:27;;;;;;;5.10;4.60;;;;;;;;;;5074913;28;20399;-85
2022/10/01 15:45:08;;;;;;;6.88;5.80;;;;;;;;;;5074812;28;20459;-86
2022/10/01 15:47:34;;;;;;;7.40;6.70;;;;;;;;;;5074749;28;20376;-85
2022/10/01 15:50:16;;;;;;;5.93;5.32;;;;;;;;;;5077318;28;20407;-85
2022/10/01 15:52:51;;;;;;;5.30;4.80;;;;;;;;;;5074679;28;20384;-85
2022/10/01 15:55:23;;;;;;;2.33;2.13;;;;;;;;;;5074693;28;20383;-85
2022/10/01 15:57:55;;;;;;;1.88;1.77;;;;;;;;;;5074679;28;20384;-86
2022/10/01 16:00:25;;;;;;;1.90;1.80;;;;;;;;;;5074353;28;20392;-87
2022/10/01 16:02:52;;;;;;;2.05;1.95;;;;;;;;;;5056532;28;20860;-85
2022/10/01 16:05:20;;;;;;;2.20;2.00;;;;;;;;;;5074808;28;20380;-85
2022/10/01 16:07:47;;;;;;;2.65;2.45;;;;;;;;;;5074522;28;20403;-87
2022/10/01 16:10:15;;;;;;;2.42;2.22;;;;;;;;;;5075131;28;20410;-87
2022/10/01 16:12:41;;;;;;;2.50;2.30;;;;;;;;;;5074457;28;20384;-85
2022/10/01 16:15:23;;;;;;;2.50;2.07;;;;;;;;;;5074419;28;20464;-85
2022/10/01 16:18:01;;;;;;;2.70;2.43;;;;;;;;;;5073647;28;20811;-85
2022/10/01 16:20:41;;;;;;;2.40;2.20;;;;;;;;;;5074130;28;20868;-85
2022/10/01 16:23:26;;;;;;;2.97;2.78;;;;;;;;;;5074160;28;20845;-85
2022/10/01 16:25:52;;;;;;;2.53;2.33;;;;;;;;;;5074132;28;20379;-85
2022/10/01 16:28:25;;;;;;;2.40;2.20;;;;;;;;;;5074295;28;20382;-85
2022/10/01 16:30:51;;;;;;;2.22;1.90;;;;;;;;;;5073924;28;20462;-86
2022/10/01 16:33:17;;;;;;;1.97;1.87;;;;;;;;;;5074327;28;20791;-85
2022/10/01 16:35:46;;;;;;;2.03;1.92;;;;;;;;;;5073931;28;20860;-85
2022/10/01 16:38:12;;;;;;;2.47;2.28;;;;;;;;;;5074133;28;20391;-85
2022/10/01 16:40:41;;;;;;;1.57;1.47;;;;;;;;;;5073779;28;20412;-85
2022/10/01 16:43:07;;;;;;;1.70;1.60;;;;;;;;;;5074094;28;20837;-86
2022/10/01 16:45:36;;;;;;;2.15;1.70;;;;;;;;;;5074109;28;20379;-85
2022/10/01 16:48:02;;;;;;;3.22;1.80;;;;;;;;;;5073720;28;20922;-85
2022/10/01 16:50:28;;;;;;;2.10;1.83;;;;;;;;;;5072542;28;20412;-87
2022/10/01 16:52:54;;;;;;;2.10;1.90;;;;;;;;;;5069826;28;20461;-85
2022/10/01 16:55:34;;;;;;;1.50;1.40;;;;;;;;;;5073662;28;20372;-86
2022/10/01 16:58:00;;;;;;;1.05;1.00;;;;;;;;;;5074070;28;20372;-86
2022/10/01 17:00:27;;;;;;;1.25;1.15;;;;;;;;;;5068275;28;20389;-87
2022/10/01 17:02:54;;;;;;;1.40;1.30;;;;;;;;;;5055007;28;20382;-87
2022/10/01 17:05:27;;;;;;;2.38;1.52;;;;;;;;;;5073432;28;20384;-86
2022/10/01 17:07:53;;;;;;;1.97;1.40;;;;;;;;;;5069293;28;20415;-86
2022/10/01 17:10:21;;;;;;;1.40;1.23;;;;;;;;;;5073131;28;20383;-86
2022/10/01 17:12:48;;;;;;;2.60;1.70;;;;;;;;;;5073358;28;20376;-87
2022/10/01 17:15:16;;;;;;;1.60;1.50;;;;;;;;;;5072665;28;20373;-86
2022/10/01 17:17:42;;;;;;;1.50;1.40;;;;;;;;;;5072611;28;20458;-86
2022/10/01 17:20:08;;;;;;;1.38;1.15;;;;;;;;;;5073254;28;20895;-87
2022/10/01 17:22:34;;;;;;;2.20;2.00;;;;;;;;;;5064478;28;20424;-87
2022/10/01 17:25:00;;;;;;;2.58;2.10;;;;;;;;;;5067854;28;20380;-85
2022/10/01 17:27:26;;;;;;;1.87;1.23;;;;;;;;;;5053689;28;20387;-87
2022/10/01 17:29:52;;;;;;;2.03;1.40;;;;;;;;;;5070619;28;20876;-86
2022/10/01 17:32:18;;;;;;;1.80;1.50;;;;;;;;;;5072235;28;20432;-87
2022/10/01 17:34:45;;;;;;;1.50;1.40;;;;;;;;;;5071736;28;20787;-87
2022/10/01 17:37:11;;;;;;;1.60;1.15;;;;;;;;;;5071571;28;20432;-87
2022/10/01 17:39:38;;;;;;;1.30;1.20;;;;;;;;;;5064044;28;20386;-86
2022/10/01 17:42:04;;;;;;;2.00;1.70;;;;;;;;;;5056800;28;20409;-86
2022/10/01 17:44:30;;;;;;;1.40;1.30;;;;;;;;;;5055244;28;20731;-87
2022/10/01 17:46:56;;;;;;;2.20;2.00;;;;;;;;;;5051616;28;20390;-88
2022/10/01 17:49:22;;;;;;;1.65;1.55;;;;;;;;;;5060050;28;20429;-87
2022/10/01 17:51:48;;;;;;;1.10;1.00;;;;;;;;;;5058262;28;20496;-86
2022/10/01 17:54:15;;;;;;;1.00;1.00;;;;;;;;;;5066275;28;20856;-86
2022/10/01 17:56:42;;;;;;;1.00;1.00;;;;;;;;;;5060929;28;20437;-86
2022/10/01 17:59:08;;;;;;;0.90;0.85;;;;;;;;;;5071978;28;20463;-86
2022/10/01 18:01:34;;;;;;;1.60;1.00;;;;;;;;;;5071108;28;20503;-85
2022/10/01 18:04:02;;;;;;;0.88;0.88;;;;;;;;;;5071269;28;20387;-86
2022/10/01 18:06:29;;;;;;;1.60;1.50;;;;;;;;;;5071327;28;20368;-86
2022/10/01 18:08:55;;;;;;;3.20;2.60;;;;;;;;;;5054849;28;20410;-88
2022/10/01 18:11:21;;;;;;;2.92;1.85;;;;;;;;;;5071943;28;20391;-87
2022/10/01 18:13:47;;;;;;;1.50;1.40;;;;;;;;;;5070465;28;20705;-86
2022/10/01 18:16:14;;;;;;;1.52;1.42;;;;;;;;;;5067621;28;20452;-88
2022/10/01 18:18:42;;;;;;;2.60;1.80;;;;;;;;;;5071084;28;20395;-85
2022/10/01 18:21:09;;;;;;;1.70;1.60;;;;;;;;;;5071643;28;20454;-87
2022/10/01 18:23:36;;;;;;;2.60;2.40;;;;;;;;;;5071729;28;20383;-87
2022/10/01 18:26:02;;;;;;;7.28;6.57;;;;;;;;;;5072990;28;20721;-88
2022/10/01 18:28:28;;;;;;;11.13;9.57;;;;;;;;;;5072081;28;20408;-85
2022/10/01 18:31:14;;;;;;;7.20;6.50;;;;;;;;;;5071838;28;20388;-84
2022/10/01 18:33:46;;;;;;;3.60;3.30;;;;;;;;;;5072008;28;20386;-86
2022/10/01 18:36:18;;;;;;;2.25;2.05;;;;;;;;;;5079506;28;20400;-88
2022/10/01 18:38:47;;;;;;;2.00;1.90;;;;;;;;;;5072101;28;20387;-87
2022/10/01 18:41:17;;;;;;;2.22;1.88;;;;;;;;;;5068826;28;20561;-87
2022/10/01 18:43:45;;;;;;;3.00;2.70;;;;;;;;;;5074139;28;20372;-87
2022/10/01 18:46:11;;;;;;;2.00;1.88;;;;;;;;;;5073945;28;20894;-86
2022/10/01 18:48:37;;;;;;;2.10;1.67;;;;;;;;;;5075072;28;20383;-88
2022/10/01 18:51:18;;;;;;;2.20;2.00;;;;;;;;;;5081794;28;20942;-88
2022/10/01 18:53:50;;;;;;;2.80;2.60;;;;;;;;;;5062197;28;20396;-85
2022/10/01 18:56:34;;;;;;;3.05;2.83;;;;;;;;;;5063912;28;20419;-87
2022/10/01 18:59:25;;;;;;;2.40;2.20;;;11.80;99.90;;;;;;5070001;28;20395;-85
2022/10/01 19:02:07;;;;;;;2.90;2.30;;;11.80;99.90;;;;;;5066492;28;20500;-87